Time;durP1;ratioP1;P1;durP2;ratioP2;P2;SDS_P1;SDS_P2;PMS_P1;PMS_P2;Temp;Humidity;BMP_temperature;BMP_pressure;BME280_temperature;BME280_humidity;BME280_pressure;Samples;Min_cycle;Max_cycle;Signal;HPM_P1;HPM_P2
2021/01/27 04:03:09;;;;;;;8.10;3.92;;;;;;;4.75;100.00;99476.17;1788902;77;21159;-75
2021/01/27 04:05:38;;;;;;;8.13;4.00;;;;;;;4.74;100.00;99469.89;1788125;78;21207;-75
2021/01/27 04:08:06;;;;;;;8.00;4.47;;;;;;;4.74;100.00;99468.60;1788023;79;21503;-76
2021/01/27 04:10:34;;;;;;;6.85;3.75;;;;;;;4.74;100.00;99466.83;1788266;79;21155;-76
2021/01/27 04:13:04;;;;;;;6.87;3.95;;;;;;;4.76;100.00;99456.32;1787980;79;21191;-76
2021/01/27 04:15:33;;;;;;;6.22;3.90;;;;;;;4.77;100.00;99461.80;1790339;78;21128;-72
2021/01/27 04:18:01;;;;;;;6.97;3.70;;;;;;;4.78;100.00;99457.77;1788781;80;21206;-75
2021/01/27 04:20:30;;;;;;;6.85;3.50;;;;;;;4.82;100.00;99451.31;1781813;79;21606;-74
2021/01/27 04:22:58;;;;;;;7.25;3.80;;;;;;;4.85;100.00;99450.19;1722232;81;21599;-74
2021/01/27 04:25:27;;;;;;;8.45;4.33;;;;;;;4.88;100.00;99445.46;1758951;80;21142;-72
2021/01/27 04:27:55;;;;;;;13.88;5.17;;;;;;;4.90;100.00;99447.09;1764646;80;21271;-72
2021/01/27 04:30:29;;;;;;;13.65;6.20;;;;;;;4.93;100.00;99445.48;1751633;80;21386;-75
2021/01/27 04:32:58;;;;;;;13.08;6.80;;;;;;;4.95;100.00;99439.64;1786738;79;21198;-75
2021/01/27 04:35:26;;;;;;;14.38;7.92;;;;;;;4.96;100.00;99433.50;1784059;78;21128;-72
2021/01/27 04:37:56;;;;;;;14.65;7.92;;;;;;;4.96;100.00;99436.88;1790713;78;21530;-74
2021/01/27 04:40:30;;;;;;;11.95;6.60;;;;;;;4.95;100.00;99420.28;1784210;78;20966;-75
2021/01/27 04:42:58;;;;;;;12.95;7.97;;;;;;;4.97;100.00;99427.38;1749313;81;22084;-75
2021/01/27 04:45:27;;;;;;;15.83;7.62;;;;;;;4.98;100.00;99422.04;1753174;80;21215;-75
2021/01/27 04:47:59;;;;;;;16.32;8.83;;;;;;;5.00;100.00;99424.44;1747506;81;21232;-78
2021/01/27 04:50:36;;;;;;;21.48;11.55;;;;;;;4.99;100.00;99429.30;1758577;80;20978;-77
2021/01/27 04:53:30;;;;;;;23.80;12.75;;;;;;;4.97;100.00;99428.19;1764696;79;21097;-75
2021/01/27 04:56:40;;;;;;;18.27;9.53;;;;;;;4.93;100.00;99421.75;1767068;79;21193;-76
2021/01/27 04:59:25;;;;;;;13.88;6.85;;;;;;;4.90;100.00;99414.81;1764117;79;21156;-72
2021/01/27 05:02:21;;;;;;;7.78;4.78;;;;;;;4.83;100.00;99406.92;1773538;79;21096;-72
2021/01/27 05:05:07;;;;;;;7.80;4.80;;;;;;;4.76;100.00;99418.39;1778338;79;21178;-71
2021/01/27 05:07:49;;;;;;;13.35;5.72;;;;;;;4.69;100.00;99407.61;1774976;78;21117;-71
2021/01/27 05:10:23;;;;;;;7.62;4.40;;;;;;;4.63;100.00;99417.63;1780464;78;22462;-73
2021/01/27 05:13:09;;;;;;;8.80;4.30;;;;;;;4.62;100.00;99412.16;1812915;77;23232;-69
2021/01/27 05:15:38;;;;;;;12.18;4.92;;;;;;;4.54;100.00;99401.03;1784627;79;20999;-70
2021/01/27 05:18:06;;;;;;;6.42;4.28;;;;;;;4.50;100.00;99403.12;1740192;81;22689;-74
2021/01/27 05:20:34;;;;;;;7.25;3.65;;;;;;;4.49;100.00;99407.17;1750040;79;21116;-74
2021/01/27 05:23:03;;;;;;;7.50;3.70;;;;;;;4.45;100.00;99413.15;1762308;79;21016;-73
2021/01/27 05:25:45;;;;;;;7.65;3.67;;;;;;;4.44;100.00;99408.97;1769449;80;21003;-71
2021/01/27 05:28:21;;;;;;;10.93;4.60;;;;;;;4.44;100.00;99407.67;1734263;80;21062;-68
2021/01/27 05:30:53;;;;;;;8.78;4.30;;;;;;;4.44;100.00;99407.67;1766298;79;21365;-68
2021/01/27 05:33:47;;;;;;;10.60;4.72;;;;;;;4.46;100.00;99415.24;1759978;79;21087;-66
2021/01/27 05:36:26;;;;;;;12.20;5.90;;;;;;;4.46;100.00;99418.62;1741921;80;21046;-66
2021/01/27 05:39:12;;;;;;;11.75;5.17;;;;;;;4.48;100.00;99414.61;1760506;79;21158;-66
2021/01/27 05:41:41;;;;;;;8.35;4.95;;;;;;;4.51;100.00;99417.66;1743422;81;21174;-68
2021/01/27 05:44:12;;;;;;;7.92;5.05;;;;;;;4.53;100.00;99410.55;1773557;80;21218;-67
2021/01/27 05:46:41;;;;;;;10.82;5.72;;;;;;;4.55;100.00;99406.05;1774025;80;21061;-68
2021/01/27 05:49:26;;;;;;;8.83;5.40;;;;;;;4.57;100.00;99403.28;1746900;82;21115;-69
2021/01/27 05:52:12;;;;;;;9.45;5.72;;;;;;;4.58;100.00;99399.72;1765716;79;21561;-67
2021/01/27 05:54:41;;;;;;;10.48;5.97;;;;;;;4.60;100.00;99397.30;1715820;81;21202;-68
2021/01/27 05:57:24;;;;;;;12.45;7.12;;;;;;;4.61;100.00;99388.59;1777353;80;21390;-68
2021/01/27 06:00:12;;;;;;;14.20;8.20;;;;;;;4.65;100.00;99386.48;1780814;80;20996;-67
2021/01/27 06:02:41;;;;;;;11.18;6.60;;;;;;;4.68;100.00;99374.53;1718580;81;21153;-68
2021/01/27 06:05:17;;;;;;;12.37;6.55;;;;;;;4.71;100.00;99374.20;1739879;81;21902;-68
2021/01/27 06:07:45;;;;;;;12.95;7.87;;;;;;;4.74;100.00;99375.17;1740596;81;21049;-68
2021/01/27 06:10:31;;;;;;;14.18;7.58;;;;;;;4.78;100.00;99375.65;1742492;81;22638;-68
2021/01/27 06:13:28;;;;;;;15.25;9.68;;;;;;;4.81;100.00;99374.00;1738349;81;21149;-69
2021/01/27 06:15:56;;;;;;;18.80;9.80;;;;;;;4.83;100.00;99377.23;1741143;81;21591;-67
2021/01/27 06:18:32;;;;;;;20.80;12.00;;;;;;;4.85;100.00;99367.55;1731996;81;21085;-67
2021/01/27 06:21:27;;;;;;;22.82;14.23;;;;;;;4.87;100.00;99373.34;1732410;81;21151;-67
2021/01/27 06:24:05;;;;;;;16.95;10.38;;;;;;;4.91;100.00;99372.52;1739956;81;21406;-67
2021/01/27 06:27:07;;;;;;;15.50;9.90;;;;;;;4.95;100.00;99372.50;1732259;82;20997;-68
2021/01/27 06:30:05;;;;;;;14.03;7.97;;;;;;;4.97;100.00;99367.50;1739020;82;20938;-67
2021/01/27 06:32:53;;;;;;;11.80;6.20;;;;;;;5.00;100.00;99376.20;1782063;79;20993;-67
2021/01/27 06:35:33;;;;;;;13.65;7.97;;;;;;;5.02;100.00;99376.82;1732117;82;20946;-68
2021/01/27 06:38:41;;;;;;;14.30;8.73;;;;;;;5.05;100.00;99373.11;1731014;82;21370;-68
2021/01/27 06:41:21;;;;;;;19.25;11.15;;;;;;;5.09;100.00;99371.30;1734623;82;21258;-68
2021/01/27 06:44:17;;;;;;;11.25;7.10;;;;;;;5.13;100.00;99365.31;1728928;82;21140;-68
2021/01/27 06:47:25;;;;;;;10.50;5.70;;;;;;;5.18;100.00;99372.55;1732923;82;20986;-67
2021/01/27 06:50:31;;;;;;;9.85;5.72;;;;;;;5.26;100.00;99362.16;1728131;82;21582;-68
2021/01/27 06:53:41;;;;;;;9.80;5.30;;;;;;;5.40;100.00;99361.44;1733277;82;23157;-69
2021/01/27 06:56:34;;;;;;;10.05;4.78;;;;;;;5.55;100.00;99357.62;1726559;82;21104;-68
2021/01/27 06:59:24;;;;;;;8.68;4.47;;;;;;;5.68;100.00;99365.59;1711573;82;21148;-67
2021/01/27 07:02:35;;;;;;;8.48;3.92;;;;;;;5.77;100.00;99368.45;1720093;82;21070;-68
2021/01/27 07:05:43;;;;;;;5.72;3.40;;;;;;;5.86;100.00;99369.19;1709547;83;21187;-69
2021/01/27 07:08:35;;;;;;;6.58;3.45;;;;;;;5.95;100.00;99361.72;1717727;82;21282;-71
2021/01/27 07:11:42;;;;;;;7.20;3.27;;;;;;;6.02;100.00;99367.80;1763228;79;21083;-67
2021/01/27 07:14:46;;;;;;;8.45;3.22;;;;;;;6.11;100.00;99365.14;1750723;80;21449;-68
2021/01/27 07:17:28;;;;;;;9.38;3.72;;;;;;;6.16;100.00;99364.11;1759172;80;21169;-69
2021/01/27 07:20:10;;;;;;;7.33;3.50;;;;;;;6.21;100.00;99363.08;1768922;80;21209;-70
2021/01/27 07:23:02;;;;;;;8.13;3.52;;;;;;;6.25;100.00;99363.04;1734321;80;21456;-70
2021/01/27 07:25:57;;;;;;;6.65;3.62;;;;;;;6.28;100.00;99363.98;1761023;80;21021;-69
2021/01/27 07:28:42;;;;;;;6.53;3.47;;;;;;;6.30;100.00;99367.22;1761796;80;21662;-70
2021/01/27 07:31:25;;;;;;;6.72;3.20;;;;;;;6.32;100.00;99358.77;1767263;80;21132;-68
2021/01/27 07:34:19;;;;;;;8.50;3.27;;;;;;;6.33;100.00;99374.14;1759567;80;21059;-67
2021/01/27 07:37:22;;;;;;;8.55;4.05;;;;;;;6.33;100.00;99363.78;1727561;80;21217;-67
2021/01/27 07:40:23;;;;;;;6.65;3.58;;;;;;;6.36;100.00;99364.39;1771511;80;21182;-68
2021/01/27 07:43:04;;;;;;;8.45;2.67;;;;;;;6.37;100.00;99357.77;1702514;84;20952;-68
2021/01/27 07:45:34;;;;;;;5.05;3.00;;;;;;;6.42;100.00;99362.41;1759655;80;21088;-68
2021/01/27 07:48:39;;;;;;;7.60;3.30;;;;;;;6.43;100.00;99360.92;1704154;84;21247;-68
2021/01/27 07:51:26;;;;;;;5.50;3.00;;;;;;;6.47;100.00;99349.22;1761273;80;21221;-67
2021/01/27 07:54:20;;;;;;;7.80;3.67;;;;;;;6.49;100.00;99352.45;1764441;80;21111;-67
2021/01/27 07:57:03;;;;;;;4.92;3.27;;;;;;;6.49;100.00;99355.05;1758393;80;21187;-67
2021/01/27 07:59:36;;;;;;;7.17;3.27;;;;;;;6.49;100.00;99353.75;1756256;80;21198;-67
2021/01/27 08:02:12;;;;;;;5.80;3.40;;;;;;;6.51;100.00;99351.77;1760281;80;21118;-67
2021/01/27 08:04:48;;;;;;;8.23;4.33;;;;;;;6.54;100.00;99349.32;1727010;82;21210;-69
2021/01/27 08:07:30;;;;;;;6.65;3.65;;;;;;;6.56;100.00;99340.89;1685625;83;21085;-69
2021/01/27 08:10:08;;;;;;;6.20;3.27;;;;;;;6.57;100.00;99355.44;1728328;81;21675;-69
2021/01/27 08:12:44;;;;;;;8.57;4.73;;;;;;;6.60;100.00;99349.11;1729045;81;21674;-69
2021/01/27 08:15:15;;;;;;;6.67;3.80;;;;;;;6.61;100.00;99345.53;1727269;81;21727;-69
2021/01/27 08:17:54;;;;;;;8.25;4.30;;;;;;;6.63;100.00;99348.73;1684976;83;21217;-69
2021/01/27 08:20:37;;;;;;;6.45;3.80;;;;;;;6.65;100.00;99336.42;1707851;82;21205;-69
2021/01/27 08:23:26;;;;;;;5.17;3.15;;;;;;;6.66;100.00;99344.00;1728111;81;21137;-69
2021/01/27 08:26:04;;;;;;;6.28;3.40;;;;;;;6.69;100.00;99338.95;1701060;83;21012;-67
2021/01/27 08:28:44;;;;;;;5.85;3.25;;;;;;;6.73;100.00;99338.91;1706397;82;21548;-69
2021/01/27 08:31:18;;;;;;;5.97;3.10;;;;;;;6.76;100.00;99334.67;1699584;83;21237;-67
2021/01/27 08:33:55;;;;;;;5.50;3.22;;;;;;;6.78;100.00;99338.69;1722383;80;21073;-67
2021/01/27 08:36:35;;;;;;;8.07;3.33;;;;;;;6.80;100.00;99343.68;1726335;82;21192;-68
2021/01/27 08:39:09;;;;;;;6.25;3.00;;;;;;;6.80;100.00;99345.77;1692004;83;21782;-68
2021/01/27 08:42:06;;;;;;;6.63;3.40;;;;;;;6.81;100.00;99334.42;1728350;82;22252;-68
2021/01/27 08:44:40;;;;;;;10.33;3.90;;;;;;;6.82;100.00;99340.43;1708170;82;21740;-68
2021/01/27 08:47:23;;;;;;;6.87;3.57;;;;;;;6.81;100.00;99336.21;1721956;81;21490;-68
2021/01/27 08:49:57;;;;;;;5.53;3.22;;;;;;;6.80;100.00;99332.83;1730815;81;21617;-68
2021/01/27 08:52:35;;;;;;;5.85;3.40;;;;;;;6.80;100.00;99330.73;1725653;81;21030;-68
2021/01/27 08:55:46;;;;;;;6.00;3.73;;;;;;;6.81;100.00;99329.73;1702293;83;21147;-68
2021/01/27 08:58:29;;;;;;;6.20;3.57;;;;;;;6.81;100.00;99323.27;1715791;81;21461;-68
2021/01/27 09:01:19;;;;;;;6.67;3.37;;;;;;;6.80;100.00;99319.88;1784694;78;21161;-67
2021/01/27 09:03:52;;;;;;;5.33;3.35;;;;;;;6.80;100.00;99322.95;1757029;80;21621;-67
2021/01/27 09:06:45;;;;;;;5.90;3.62;;;;;;;6.80;100.00;99317.78;1749941;80;21243;-67
2021/01/27 09:09:36;;;;;;;6.55;3.80;;;;;;;6.80;100.00;99321.66;1689744;83;21677;-67
2021/01/27 09:12:08;;;;;;;6.40;3.40;;;;;;;6.79;100.00;99308.41;1675632;83;21039;-67
2021/01/27 09:14:37;;;;;;;5.97;3.87;;;;;;;6.75;100.00;99310.56;1712239;82;21458;-68
2021/01/27 09:17:06;;;;;;;9.23;4.40;;;;;;;6.73;100.00;99306.53;1693070;83;21401;-68
2021/01/27 09:19:36;;;;;;;6.87;3.90;;;;;;;6.71;100.00;99298.16;1709432;82;21201;-67
2021/01/27 09:22:22;;;;;;;6.83;3.60;;;;;;;6.70;100.00;99312.07;1695845;83;21938;-68
2021/01/27 09:24:55;;;;;;;6.05;3.80;;;;;;;6.68;100.00;99307.58;1711817;82;21766;-68
2021/01/27 09:27:30;;;;;;;8.15;3.62;;;;;;;6.63;100.00;99310.72;1693081;83;21698;-68
2021/01/27 09:32:46;;;;;;;13.95;6.70;;;;;;;6.59;100.00;99300.37;1740404;80;21340;-68
2021/01/27 09:35:22;;;;;;;11.60;7.40;;;;;;;6.58;100.00;99298.28;1743964;80;21486;-68
2021/01/27 09:38:20;;;;;;;8.83;4.85;;;;;;;6.60;100.00;99286.97;1742247;80;21766;-68
2021/01/27 09:40:54;;;;;;;8.53;4.00;;;;;;;6.64;100.00;99298.56;1707569;81;22286;-69
2021/01/27 09:43:22;;;;;;;8.68;4.50;;;;;;;6.69;100.00;99287.16;1711686;83;21530;-69
2021/01/27 09:45:51;;;;;;;9.73;4.95;;;;;;;6.72;100.00;99273.86;1707477;81;21746;-69
2021/01/27 09:48:21;;;;;;;8.83;4.90;;;;;;;6.76;100.00;99271.21;1700538;83;21203;-68
2021/01/27 09:50:53;;;;;;;8.37;5.13;;;;;;;6.81;100.00;99271.45;1684150;83;22356;-68
2021/01/27 09:53:35;;;;;;;9.27;4.87;;;;;;;6.85;100.00;99279.17;1716253;83;21842;-69
2021/01/27 09:58:48;;;;;;;7.80;4.33;;;;;;;6.96;100.00;99280.48;1661652;84;21519;-67
2021/01/27 10:01:21;;;;;;;8.63;4.50;;;;;;;7.01;100.00;99271.19;1679068;83;21462;-68
2021/01/27 10:03:51;;;;;;;8.70;5.00;;;;;;;7.03;100.00;99280.06;1671791;83;21512;-68
2021/01/27 10:06:59;;;;;;;9.83;5.08;;;;;;;7.05;100.00;99275.52;1639099;84;21521;-68
2021/01/27 10:09:32;;;;;;;6.55;4.15;;;;;;;7.05;100.00;99271.13;1698128;82;21165;-70
2021/01/27 10:12:05;;;;;;;6.40;3.90;;;;;;;7.07;100.00;99273.03;1695466;82;21157;-67
2021/01/27 10:14:36;;;;;;;7.60;4.30;;;;;;;7.09;100.00;99266.88;1700941;82;21339;-70
2021/01/27 10:17:09;;;;;;;6.70;3.63;;;;;;;7.10;100.00;99264.59;1694847;83;21419;-72
2021/01/27 10:19:46;;;;;;;7.70;4.50;;;;;;;7.11;100.00;99264.89;1697956;82;21378;-70
2021/01/27 10:22:14;;;;;;;12.20;5.80;;;;;;;7.13;100.00;99269.41;1698762;82;21488;-69
2021/01/27 10:24:55;;;;;;;8.20;4.57;;;;;;;7.17;100.00;99261.58;1698268;83;21196;-70
2021/01/27 10:27:40;;;;;;;7.95;5.35;;;;;;;7.21;100.00;99257.62;1698631;82;21456;-68
2021/01/27 10:30:22;;;;;;;9.87;4.83;;;;;;;7.25;100.00;99265.33;1698385;82;21387;-69
2021/01/27 10:32:50;;;;;;;6.97;4.30;;;;;;;7.28;100.00;99259.28;1697146;83;21517;-69
2021/01/27 10:35:28;;;;;;;9.17;5.40;;;;;;;7.31;100.00;99261.51;1701266;82;21038;-67
2021/01/27 10:38:12;;;;;;;8.03;5.30;;;;;;;7.34;100.00;99260.31;1697628;82;21464;-68
2021/01/27 10:41:01;;;;;;;7.37;4.20;;;;;;;7.40;100.00;99264.77;1723717;81;21398;-69
2021/01/27 10:43:29;;;;;;;8.23;4.47;;;;;;;7.45;100.00;99258.52;1691069;83;21883;-68
2021/01/27 10:45:57;;;;;;;8.63;5.13;;;;;;;7.52;100.00;99261.17;1721438;81;21446;-68
2021/01/27 10:48:30;;;;;;;10.47;5.63;;;;;;;7.59;100.00;99263.83;1721834;81;21311;-70
2021/01/27 10:51:05;;;;;;;;;;;;;;;7.64;100.00;99259.66;1726938;81;21263;-69
2021/01/27 10:53:39;;;;;;;9.10;4.93;;;;;;;7.72;100.00;99266.00;1718936;81;20604;-68
2021/01/27 10:56:07;;;;;;;10.90;6.23;;;;;;;7.77;100.00;99263.67;1723456;81;21538;-69
2021/01/27 10:58:35;;;;;;;8.73;4.53;;;;;;;7.81;100.00;99261.50;1721133;81;21471;-69
2021/01/27 11:01:04;;;;;;;8.10;4.73;;;;;;;7.83;100.00;99253.52;1720704;81;21196;-70
2021/01/27 11:03:55;;;;;;;9.83;5.00;;;;;;;7.81;100.00;99262.80;1721052;81;21335;-71
2021/01/27 11:06:24;;;;;;;9.13;4.77;;;;;;;7.79;100.00;99255.68;1640222;85;21472;-69
2021/01/27 11:08:53;;;;;;;11.00;4.33;;;;;;;7.75;100.00;99257.05;1690621;83;21770;-74
2021/01/27 11:11:23;;;;;;;8.27;5.00;;;;;;;7.70;100.00;99256.83;1691410;83;21444;-70
2021/01/27 11:13:51;;;;;;;9.13;4.97;;;;;;;7.66;100.00;99254.30;1692607;83;21384;-69
2021/01/27 11:16:21;;;;;;;8.13;4.97;;;;;;;7.61;100.00;99248.86;1691138;83;21497;-69
2021/01/27 11:18:49;;;;;;;10.00;5.13;;;;;;;7.59;100.00;99252.16;1690091;83;21404;-68
2021/01/27 11:21:18;;;;;;;8.27;4.60;;;;;;;7.57;100.00;99249.73;1692594;83;21486;-70
2021/01/27 11:23:47;;;;;;;7.30;4.90;;;;;;;7.54;100.00;99243.15;1647031;85;21926;-69
2021/01/27 11:26:19;;;;;;;8.30;5.20;;;;;;;7.56;100.00;99241.16;1683275;85;21347;-72
2021/01/27 11:28:49;;;;;;;929.87;436.43;;;;;;;7.55;100.00;99238.76;1692119;83;21526;-69
2021/01/27 11:31:18;;;;;;;635.27;376.12;;;;;;;7.55;100.00;99244.74;1688697;83;21879;-69
2021/01/27 11:33:46;;;;;;;193.80;128.30;;;;;;;7.58;100.00;99242.75;1691127;83;22687;-70
2021/01/27 11:36:17;;;;;;;336.43;251.37;;;;;;;7.59;100.00;99237.89;1691313;84;21346;-68
2021/01/27 11:38:46;;;;;;;82.57;70.23;;;;;;;7.64;100.00;99244.10;1689752;84;21337;-68
2021/01/27 11:41:14;;;;;;;532.03;297.70;;;;;;;7.69;100.00;99238.34;1669357;84;21238;-67
2021/01/27 11:43:43;;;;;;;262.23;154.37;;;;;;;7.70;100.00;99234.78;1690266;83;21525;-68
2021/01/27 11:46:14;;;;;;;1728.17;748.07;;;;;;;7.72;100.00;99241.86;1694094;83;22820;-68
2021/01/27 11:48:42;;;;;;;230.33;108.83;;;;;;;7.75;100.00;99242.78;1687221;84;21193;-67
2021/01/27 11:51:12;;;;;;;87.03;59.80;;;;;;;7.78;100.00;99241.91;1690815;83;21236;-70
2021/01/27 11:53:40;;;;;;;18.50;12.83;;;;;;;7.83;100.00;99240.04;1690199;84;21889;-70
2021/01/27 11:56:08;;;;;;;13.33;9.77;;;;;;;7.87;100.00;99232.18;1691678;83;21417;-70
2021/01/27 11:58:38;;;;;;;9.63;6.00;;;;;;;7.91;100.00;99232.60;1690829;84;21389;-69
2021/01/27 12:01:08;;;;;;;138.53;123.20;;;;;;;7.96;100.00;99232.35;1690413;83;21397;-70
2021/01/27 12:03:37;;;;;;;82.70;52.97;;;;;;;8.02;100.00;99234.66;1690272;83;21478;-69
2021/01/27 12:06:06;;;;;;;464.97;350.00;;;;;;;8.09;100.00;99236.00;1711914;81;21148;-69
2021/01/27 12:08:36;;;;;;;41.03;26.13;;;;;;;8.14;100.00;99236.22;1687419;84;21357;-69
2021/01/27 12:11:05;;;;;;;158.27;136.13;;;;;;;8.20;100.00;99233.66;1686217;84;22137;-69
2021/01/27 12:13:36;;;;;;;51.27;46.13;;;;;;;8.23;100.00;99231.19;1688825;83;21930;-69
2021/01/27 12:16:05;;;;;;;10.63;7.30;;;;;;;8.23;100.00;99237.69;1687240;83;21860;-69
2021/01/27 12:18:33;;;;;;;13.33;9.67;;;;;;;8.21;100.00;99221.48;1689109;83;21083;-68
2021/01/27 12:21:02;;;;;;;73.57;55.60;;;;;;;8.20;100.00;99227.17;1691783;83;21823;-70
2021/01/27 12:23:30;;;;;;;19.83;12.57;;;;;;;8.19;100.00;99214.40;1709376;82;22790;-71
2021/01/27 12:25:59;;;;;;;10.07;6.50;;;;;;;8.16;100.00;99209.59;1714634;82;21927;-70
2021/01/27 12:28:28;;;;;;;177.03;109.47;;;;;;;8.15;100.00;99217.08;1713779;82;21409;-70
2021/01/27 12:30:57;;;;;;;26.60;18.20;;;;;;;8.14;100.00;99213.66;1691051;83;21196;-70
2021/01/27 12:33:25;;;;;;;16.07;7.57;;;;;;;8.15;100.00;99215.78;1689992;83;21498;-70
2021/01/27 12:35:54;;;;;;;10.60;6.67;;;;;;;8.14;100.00;99213.66;1693155;84;22457;-70
2021/01/27 12:38:23;;;;;;;11.60;7.70;;;;;;;8.14;100.00;99215.45;1716064;82;21785;-68
2021/01/27 12:40:51;;;;;;;23.53;15.07;;;;;;;8.11;100.00;99200.29;1688045;83;21469;-68
2021/01/27 12:43:20;;;;;;;24.73;18.57;;;;;;;8.10;100.00;99211.14;1688275;83;21500;-68
2021/01/27 12:45:48;;;;;;;13.40;6.83;;;;;;;8.08;100.00;99207.16;1686628;84;21471;-68
2021/01/27 12:48:16;;;;;;;6.90;4.67;;;;;;;8.06;100.00;99208.63;1690284;83;21387;-71
2021/01/27 12:50:45;;;;;;;31.83;24.37;;;;;;;8.03;100.00;99202.05;1687114;83;21214;-70
2021/01/27 12:53:13;;;;;;;11.67;8.17;;;;;;;8.02;100.00;99194.44;1690449;84;21262;-70
2021/01/27 12:55:42;;;;;;;15.43;10.00;;;;;;;8.01;100.00;99204.02;1690117;83;21804;-71
2021/01/27 12:58:10;;;;;;;12.57;6.77;;;;;;;8.01;100.00;99198.83;1687762;83;21383;-69
2021/01/27 13:00:38;;;;;;;11.93;6.70;;;;;;;8.02;100.00;99208.21;1690682;83;21976;-68
2021/01/27 13:03:08;;;;;;;14.47;9.30;;;;;;;8.04;100.00;99201.05;1715464;82;21424;-69
2021/01/27 13:05:37;;;;;;;12.93;6.83;;;;;;;8.07;100.00;99203.77;1715325;82;21225;-69
2021/01/27 13:08:06;;;;;;;14.60;8.13;;;;;;;8.08;100.00;99211.84;1713979;83;21422;-70
2021/01/27 13:10:40;;;;;;;18.20;7.07;;;;;;;8.09;100.00;99203.56;1712320;83;21429;-69
2021/01/27 13:13:06;;;;;;;12.23;6.97;;;;;;;8.10;100.00;99198.16;1713499;83;21505;-69
2021/01/27 13:15:34;;;;;;;18.30;13.80;;;;;;;8.10;100.00;99185.69;1714182;82;21086;-69
2021/01/27 13:18:04;;;;;;;112.97;69.40;;;;;;;8.03;100.00;99190.38;1714926;82;21477;-69
2021/01/27 13:20:33;;;;;;;125.83;74.27;;;;;;;7.96;100.00;99187.44;1716198;82;21439;-69
2021/01/27 13:23:02;;;;;;;203.70;110.60;;;;;;;7.90;100.00;99191.59;1715346;82;21649;-69
2021/01/27 13:25:31;;;;;;;63.60;32.80;;;;;;;7.83;100.00;99186.06;1715114;82;21550;-71
2021/01/27 13:28:02;;;;;;;121.23;64.10;;;;;;;7.75;100.00;99183.13;1696172;83;21467;-69
2021/01/27 13:30:33;;;;;;;83.47;44.80;;;;;;;7.68;100.00;99184.37;1729154;81;21833;-69
2021/01/27 13:33:07;;;;;;;34.20;21.50;;;;;;;7.61;100.00;99183.52;1695735;82;21843;-69
2021/01/27 13:35:36;;;;;;;70.03;42.27;;;;;;;7.54;100.00;99167.14;1693880;83;21176;-69
2021/01/27 13:38:04;;;;;;;55.83;35.83;;;;;;;7.45;100.00;99170.36;1694290;84;21997;-70
2021/01/27 13:40:32;;;;;;;32.57;21.63;;;;;;;7.39;100.00;99176.81;1695446;82;21722;-70
2021/01/27 13:43:01;;;;;;;19.87;11.47;;;;;;;7.30;100.00;99167.06;1694489;84;21590;-70
2021/01/27 13:45:31;;;;;;;15.23;9.37;;;;;;;7.21;100.00;99165.61;1701416;82;21490;-70
2021/01/27 13:47:59;;;;;;;12.60;7.30;;;;;;;7.12;100.00;99162.83;1700038;82;21519;-69
2021/01/27 13:50:29;;;;;;;38.90;25.67;;;;;;;7.03;100.00;99165.56;1699776;82;22576;-70
2021/01/27 13:52:57;;;;;;;32.37;22.27;;;;;;;6.94;100.00;99173.16;1698453;82;21224;-69
2021/01/27 13:55:26;;;;;;;18.93;12.80;;;;;;;6.86;100.00;99162.94;1699502;82;21423;-70
2021/01/27 13:57:54;;;;;;;14.93;8.40;;;;;;;6.79;100.00;99150.41;1696686;82;21806;-70
2021/01/27 14:00:24;;;;;;;18.50;9.97;;;;;;;6.72;100.00;99156.81;1700656;84;21774;-70
2021/01/27 14:02:52;;;;;;;17.50;9.97;;;;;;;6.64;100.00;99150.47;1699243;82;21407;-70
2021/01/27 14:05:23;;;;;;;14.37;8.50;;;;;;;6.56;100.00;99152.69;1702560;82;22067;-70
2021/01/27 14:07:53;;;;;;;14.83;8.63;;;;;;;6.47;100.00;99151.18;1710630;83;21452;-70
2021/01/27 14:10:27;;;;;;;16.57;8.80;;;;;;;6.41;100.00;99155.81;1670734;84;21203;-69
2021/01/27 14:12:55;;;;;;;13.10;8.70;;;;;;;6.33;100.00;99143.78;1706279;83;21289;-71
2021/01/27 14:15:27;;;;;;;13.70;8.17;;;;;;;6.26;100.00;99148.09;1711832;82;21507;-71
2021/01/27 14:17:55;;;;;;;16.87;9.43;;;;;;;6.19;100.00;99156.76;1697784;83;21874;-70
2021/01/27 14:20:27;;;;;;;15.70;9.28;;;;;;;6.11;100.00;99150.39;1710969;83;21102;-70
2021/01/27 14:22:54;;;;;;;15.83;9.70;;;;;;;6.03;100.00;99151.30;1696254;83;21154;-70
2021/01/27 14:25:25;;;;;;;20.85;12.50;;;;;;;5.96;100.00;99155.09;1709470;83;21265;-70
2021/01/27 14:27:56;;;;;;;24.60;16.52;;;;;;;5.89;100.00;99158.05;1700425;83;21419;-70
2021/01/27 14:30:32;;;;;;;23.70;14.87;;;;;;;5.82;100.00;99158.45;1699681;82;21130;-70
2021/01/27 14:33:00;;;;;;;30.85;21.20;;;;;;;5.76;100.00;99155.30;1699190;83;21199;-71
2021/01/27 14:35:30;;;;;;;30.27;15.83;;;;;;;5.72;100.00;99154.86;1710406;83;21157;-70
2021/01/27 14:37:59;;;;;;;20.00;12.35;;;;;;;5.69;100.00;99158.29;1710134;83;21229;-70
2021/01/27 14:40:30;;;;;;;18.15;10.58;;;;;;;5.65;100.00;99146.70;1710280;82;22222;-69
2021/01/27 14:42:58;;;;;;;15.75;9.55;;;;;;;5.63;100.00;99149.94;1713274;82;21643;-70
2021/01/27 14:45:28;;;;;;;13.32;7.80;;;;;;;5.61;100.00;99143.17;1674747;83;21150;-68
2021/01/27 14:47:58;;;;;;;10.48;6.95;;;;;;;5.63;100.00;99149.45;1695011;83;21133;-68
2021/01/27 14:50:28;;;;;;;13.28;8.08;;;;;;;5.65;100.00;99138.95;1696015;83;21191;-68
2021/01/27 14:52:58;;;;;;;14.40;9.18;;;;;;;5.66;100.00;99135.38;1695791;83;21401;-69
2021/01/27 14:55:26;;;;;;;19.48;11.55;;;;;;;5.67;100.00;99138.27;1695561;83;21231;-69
2021/01/27 14:57:55;;;;;;;15.58;10.53;;;;;;;5.68;100.00;99130.81;1696512;83;21026;-70
2021/01/27 15:00:24;;;;;;;13.98;10.23;;;;;;;5.68;100.00;99133.39;1696069;83;21139;-71
2021/01/27 15:02:52;;;;;;;17.55;11.73;;;;;;;5.70;100.00;99136.62;1708506;83;21217;-71
2021/01/27 15:05:21;;;;;;;16.87;10.58;;;;;;;5.70;100.00;99134.83;1708721;82;21837;-72
2021/01/27 15:07:51;;;;;;;14.73;9.50;;;;;;;5.70;100.00;99135.33;1689776;83;21165;-71
2021/01/27 15:10:23;;;;;;;12.82;7.90;;;;;;;5.71;100.00;99131.75;1654095;85;21263;-72
2021/01/27 15:12:51;;;;;;;12.47;9.13;;;;;;;5.72;100.00;99132.05;1673266;84;21220;-71
2021/01/27 15:15:20;;;;;;;15.45;9.23;;;;;;;5.75;100.00;99137.67;1667959;84;21700;-73
2021/01/27 15:17:49;;;;;;;13.40;8.23;;;;;;;5.78;100.00;99139.11;1665573;84;21295;-73
2021/01/27 15:20:22;;;;;;;11.88;6.78;;;;;;;5.81;100.00;99145.22;1665978;84;21064;-73
2021/01/27 15:22:50;;;;;;;12.55;8.60;;;;;;;5.81;100.00;99140.05;1669484;84;21594;-74
2021/01/27 15:25:20;;;;;;;10.75;6.30;;;;;;;5.82;100.00;99141.64;1665529;84;21748;-72
2021/01/27 15:27:51;;;;;;;9.98;5.08;;;;;;;5.83;100.00;99144.07;1666350;84;21258;-72
2021/01/27 15:30:24;;;;;;;22.70;14.60;;;;;;;5.89;100.00;99150.78;1677598;84;21420;-73
2021/01/27 15:32:52;;;;;;;10.50;6.78;;;;;;;5.90;100.00;99158.35;1668287;84;21194;-73
2021/01/27 15:35:21;;;;;;;11.73;6.22;;;;;;;5.93;100.00;99155.45;1642261;85;21808;-70
2021/01/27 15:37:51;;;;;;;9.83;5.70;;;;;;;5.97;100.00;99151.52;1661774;84;21713;-69
2021/01/27 15:40:25;;;;;;;10.60;5.60;;;;;;;6.00;100.00;99156.33;1673230;84;21708;-69
2021/01/27 15:42:50;;;;;;;9.60;6.28;;;;;;;6.03;100.00;99149.52;1677427;84;22712;-67
2021/01/27 15:45:20;;;;;;;8.43;5.03;;;;;;;6.13;100.00;99134.19;1678681;84;21709;-69
2021/01/27 15:47:48;;;;;;;8.70;4.83;;;;;;;6.18;100.00;99131.87;1681101;84;21291;-67
2021/01/27 15:50:17;;;;;;;7.87;4.40;;;;;;;6.21;100.00;99136.66;1676807;84;22101;-70
2021/01/27 15:52:47;;;;;;;7.92;4.92;;;;;;;6.22;100.00;99146.84;1672833;84;21226;-71
2021/01/27 15:55:16;;;;;;;10.08;5.45;;;;;;;6.23;100.00;99149.73;1673638;84;21176;-68
2021/01/27 15:57:45;;;;;;;9.05;4.72;;;;;;;6.22;100.00;99146.84;1670546;84;21179;-68
2021/01/27 16:00:15;;;;;;;10.13;4.22;;;;;;;6.22;100.00;99155.11;1666767;84;21021;-68
2021/01/27 16:02:43;;;;;;;8.70;5.05;;;;;;;6.22;100.00;99141.67;1666705;84;21180;-69
2021/01/27 16:05:14;;;;;;;8.08;4.75;;;;;;;6.23;100.00;99128.23;1661998;84;21517;-75
2021/01/27 16:07:42;;;;;;;8.88;4.58;;;;;;;6.22;100.00;99136.50;1666901;84;22969;-74
2021/01/27 16:10:13;;;;;;;10.30;5.15;;;;;;;6.23;100.00;99134.70;1680595;83;21406;-71
2021/01/27 16:12:42;;;;;;;8.75;5.00;;;;;;;6.22;100.00;99131.32;1686985;83;21548;-72